Klipper Stream — PHBO — position and weather

sailwx.info

Track history (hours):
 
Tides and Currents Weather Stations Pressure Air Temp Water Temp Dewpoint Dewpoint Depression Visibility Wind Speed Wind Dir Waves Ship Positions

Klipper Stream

Last reported at 2017-Sep-21 01:24 UTC. Time now 2017-Sep-21 03:18 UTC.
Position N 14°35' W 061°03'.

Length 150 m; draft 7.6 m.

Type: Ship. MMSI: 245398000.

Date/timePositionNaut miles runAvg speedWind from/ knotsBaromVisibWave heightAir tempDewpointWater temp
2017-Sep-21 01:24N 14°35' W 061°03'0 0.2
2017-Sep-21 00:51N 14°35' W 061°03'0 0.0
2017-Sep-21 00:27N 14°35' W 061°03'35 1.3
2017-Sep-19 22:32N 14°01' W 060°60'0 0.0
2017-Sep-19 22:26N 14°01' W 060°60'0 0.0
2017-Sep-19 21:59N 14°01' W 060°60'0 0.0
2017-Sep-19 21:29N 14°01' W 060°60'0 0.0
2017-Sep-19 20:59N 14°01' W 060°60'0 0.0
2017-Sep-19 20:29N 14°01' W 060°60'  
2017-Sep-15 16:08N 16°03' W 061°27'212.4
2017-Sep-15 16:00N 16°05' W 061°27'4 6.9
2017-Sep-15 15:29N 16°08' W 061°28'510.2
2017-Sep-15 15:00N 16°10' W 061°33'4 7.1
2017-Sep-15 14:30N 16°14' W 061°33'0 0.0
2017-Sep-15 13:59N 16°14' W 061°33'0 0.0
2017-Sep-15 13:29N 16°14' W 061°33'0 0.0
2017-Sep-15 13:00N 16°14' W 061°33'0 0.0
2017-Sep-15 12:30N 16°14' W 061°33'0 0.0
2017-Sep-15 12:00N 16°14' W 061°33'0 0.0
2017-Sep-15 11:30N 16°14' W 061°33'0 0.0
2017-Sep-15 10:42N 16°14' W 061°33'0 0.0
2017-Sep-15 10:30N 16°14' W 061°33'1 1.4
2017-Sep-15 10:00N 16°13' W 061°32'3 6.2
2017-Sep-15 09:31N 16°10' W 061°33'3 6.4
2017-Sep-15 09:00N 16°08' W 061°30'5 9.2
2017-Sep-15 08:30N 16°04' W 061°28'2212.1
2017-Sep-15 06:39N 15°42' W 061°33'212.1
2017-Sep-15 06:30N 15°40' W 061°33'713.1
2017-Sep-15 05:59N 15°34' W 061°34'4812.9
2017-Sep-15 02:15N 14°47' W 061°22'612.5
2017-Sep-15 01:45N 14°42' W 061°19'312.8
2017-Sep-15 01:30N 14°39' W 061°17'611.5
2017-Sep-15 01:00N 14°36' W 061°12'612.9
2017-Sep-15 00:30N 14°35' W 061°05'2 4.3
2017-Sep-15 00:00N 14°35' W 061°03'0 0.0
2017-Sep-14 23:30N 14°35' W 061°03'0 0.0
2017-Sep-14 22:35N 14°35' W 061°03'0 0.0
2017-Sep-14 22:26N 14°35' W 061°03'0 0.0
2017-Sep-14 21:56N 14°35' W 061°03'0 0.0
2017-Sep-14 21:29N 14°35' W 061°03'0 0.0
2017-Sep-14 20:59N 14°35' W 061°03'0 0.0
2017-Sep-14 20:29N 14°35' W 061°03'0 0.0
2017-Sep-14 19:59N 14°35' W 061°03'0 0.0
2017-Sep-14 19:29N 14°35' W 061°03'0 0.0
2017-Sep-14 18:59N 14°35' W 061°03'0 0.7
2017-Sep-14 18:30N 14°36' W 061°03'2 4.3
2017-Sep-14 18:00N 14°35' W 061°06'2 3.6
2017-Sep-14 17:30N 14°36' W 061°07'4 7.8
2017-Sep-14 17:00N 14°36' W 061°11'4 7.9
2017-Sep-14 16:30N 14°37' W 061°15'4 8.4
2017-Sep-14 16:00N 14°40' W 061°18'1713.7
2017-Sep-14 14:44N 14°58' W 061°18'15717.9
2017-Sep-14 06:00N 16°30' W 059°06'10818.1 250 / 101014.710.8 26.5
2017-Sep-14 00:00N 17°36' W 057°36'11218.6 140 / 81015.710.8 27.0
2017-Sep-13 18:00N 18°48' W 056°06'23519.6 120 / 61014.410.8 28.0
2017-Sep-13 06:00N 21°12' W 052°48'11919.8 1014.410.8 27.0
2017-Sep-13 00:00N 22°24' W 051°06'11819.7 1016.110.8 27.0
2017-Sep-12 18:00N 23°36' W 049°24'24320.2 1015.010.8 29.0
2017-Sep-12 06:00N 26°06' W 045°54'11619.4 180 / 81015.410.8 26.0
2017-Sep-12 00:00N 27°18' W 044°12'11519.2 180 / 81018.610.8 27.0
2017-Sep-11 18:00N 28°30' W 042°30'23719.7 180 / 81017.910.8 27.0
2017-Sep-11 06:00N 30°54' W 038°54'   110 / 161020.110.8 25.0
Track history (hours):
 
Tides and Currents Weather Stations Pressure Air Temp Water Temp Dewpoint Dewpoint Depression Visibility Wind Speed Wind Dir Waves Ship Positions

Klipper Stream

Last reported at 2017-Sep-21 01:24 UTC. Time now 2017-Sep-21 03:18 UTC.
Position N 14°35' W 061°03'.

Length 150 m; draft 7.6 m.

Type: Ship. MMSI: 245398000.

Date/timePositionNaut miles runAvg speedWind from/ knotsBaromVisibWave heightAir tempDewpointWater temp
2017-Sep-21 01:24N 14°35' W 061°03'0 0.2
2017-Sep-21 00:51N 14°35' W 061°03'0 0.0
2017-Sep-21 00:27N 14°35' W 061°03'35 1.3
2017-Sep-19 22:32N 14°01' W 060°60'0 0.0
2017-Sep-19 22:26N 14°01' W 060°60'0 0.0
2017-Sep-19 21:59N 14°01' W 060°60'0 0.0
2017-Sep-19 21:29N 14°01' W 060°60'0 0.0
2017-Sep-19 20:59N 14°01' W 060°60'0 0.0
2017-Sep-19 20:29N 14°01' W 060°60'  
2017-Sep-15 16:08N 16°03' W 061°27'212.4
2017-Sep-15 16:00N 16°05' W 061°27'4 6.9
2017-Sep-15 15:29N 16°08' W 061°28'510.2
2017-Sep-15 15:00N 16°10' W 061°33'4 7.1
2017-Sep-15 14:30N 16°14' W 061°33'0 0.0
2017-Sep-15 13:59N 16°14' W 061°33'0 0.0
2017-Sep-15 13:29N 16°14' W 061°33'0 0.0
2017-Sep-15 13:00N 16°14' W 061°33'0 0.0
2017-Sep-15 12:30N 16°14' W 061°33'0 0.0
2017-Sep-15 12:00N 16°14' W 061°33'0 0.0
2017-Sep-15 11:30N 16°14' W 061°33'0 0.0
2017-Sep-15 10:42N 16°14' W 061°33'0 0.0
2017-Sep-15 10:30N 16°14' W 061°33'1 1.4
2017-Sep-15 10:00N 16°13' W 061°32'3 6.2
2017-Sep-15 09:31N 16°10' W 061°33'3 6.4
2017-Sep-15 09:00N 16°08' W 061°30'5 9.2
2017-Sep-15 08:30N 16°04' W 061°28'2212.1
2017-Sep-15 06:39N 15°42' W 061°33'212.1
2017-Sep-15 06:30N 15°40' W 061°33'713.1
2017-Sep-15 05:59N 15°34' W 061°34'4812.9
2017-Sep-15 02:15N 14°47' W 061°22'612.5
2017-Sep-15 01:45N 14°42' W 061°19'312.8
2017-Sep-15 01:30N 14°39' W 061°17'611.5
2017-Sep-15 01:00N 14°36' W 061°12'612.9
2017-Sep-15 00:30N 14°35' W 061°05'2 4.3
2017-Sep-15 00:00N 14°35' W 061°03'0 0.0
2017-Sep-14 23:30N 14°35' W 061°03'0 0.0
2017-Sep-14 22:35N 14°35' W 061°03'0 0.0
2017-Sep-14 22:26N 14°35' W 061°03'0 0.0
2017-Sep-14 21:56N 14°35' W 061°03'0 0.0
2017-Sep-14 21:29N 14°35' W 061°03'0 0.0
2017-Sep-14 20:59N 14°35' W 061°03'0 0.0
2017-Sep-14 20:29N 14°35' W 061°03'0 0.0
2017-Sep-14 19:59N 14°35' W 061°03'0 0.0
2017-Sep-14 19:29N 14°35' W 061°03'0 0.0
2017-Sep-14 18:59N 14°35' W 061°03'0 0.7
2017-Sep-14 18:30N 14°36' W 061°03'2 4.3
2017-Sep-14 18:00N 14°35' W 061°06'2 3.6
2017-Sep-14 17:30N 14°36' W 061°07'4 7.8
2017-Sep-14 17:00N 14°36' W 061°11'4 7.9
2017-Sep-14 16:30N 14°37' W 061°15'4 8.4
2017-Sep-14 16:00N 14°40' W 061°18'1713.7
2017-Sep-14 14:44N 14°58' W 061°18'15717.9
2017-Sep-14 06:00N 16°30' W 059°06'10818.1 250 / 101014.710.8 26.5
2017-Sep-14 00:00N 17°36' W 057°36'11218.6 140 / 81015.710.8 27.0
2017-Sep-13 18:00N 18°48' W 056°06'23519.6 120 / 61014.410.8 28.0
2017-Sep-13 06:00N 21°12' W 052°48'11919.8 1014.410.8 27.0
2017-Sep-13 00:00N 22°24' W 051°06'11819.7 1016.110.8 27.0
2017-Sep-12 18:00N 23°36' W 049°24'24320.2 1015.010.8 29.0
2017-Sep-12 06:00N 26°06' W 045°54'11619.4 180 / 81015.410.8 26.0
2017-Sep-12 00:00N 27°18' W 044°12'11519.2 180 / 81018.610.8 27.0
2017-Sep-11 18:00N 28°30' W 042°30'23719.7 180 / 81017.910.8 27.0
2017-Sep-11 06:00N 30°54' W 038°54'   110 / 161020.110.8 25.0

Dump ship's entire track history